createdAt,value
2017-11-15T00:16:09.919Z,94.20
2017-11-15T00:18:37.385Z,94.30
2017-11-15T00:21:05.645Z,94.50
2017-11-15T00:23:33.122Z,94.50
2017-11-15T00:26:01.483Z,94.90
2017-11-15T00:28:29.733Z,95.00
2017-11-15T00:30:58.204Z,95.00
2017-11-15T00:33:25.711Z,95.10
2017-11-15T00:35:53.325Z,95.20
2017-11-15T00:38:20.831Z,95.20
2017-11-15T00:40:49.107Z,95.50
2017-11-15T00:43:17.357Z,95.70
2017-11-15T00:45:44.850Z,95.70
2017-11-15T00:48:12.348Z,95.90
2017-11-15T00:50:39.826Z,95.90
2017-11-15T00:53:07.330Z,96.00
2017-11-15T00:55:35.574Z,96.10
2017-11-15T00:58:03.052Z,96.10
2017-11-15T01:00:31.305Z,96.30
2017-11-15T01:02:58.789Z,96.30
2017-11-15T01:05:27.064Z,96.30
2017-11-15T01:07:55.312Z,96.40
2017-11-15T01:10:22.798Z,96.40
2017-11-15T01:12:51.036Z,96.60
2017-11-15T01:15:18.529Z,96.60
2017-11-15T01:17:46.773Z,96.70
2017-11-15T01:20:14.269Z,96.70
2017-11-15T01:22:42.508Z,96.80
2017-11-15T01:25:09.992Z,96.70
2017-11-15T01:27:38.260Z,96.90
2017-11-15T01:30:05.743Z,96.90
2017-11-15T01:32:34.000Z,96.70
2017-11-15T01:35:01.483Z,96.70
2017-11-15T01:37:29.735Z,96.50
2017-11-15T01:39:57.234Z,96.50
2017-11-15T01:42:24.739Z,96.60
2017-11-15T01:44:52.227Z,96.60
2017-11-15T01:47:20.504Z,96.20
2017-11-15T01:49:47.990Z,96.20
2017-11-15T01:52:15.481Z,96.60
2017-11-15T01:54:42.974Z,96.40
2017-11-15T01:57:11.252Z,96.30
2017-11-15T01:59:39.519Z,96.50
2017-11-15T02:02:07.764Z,96.70
2017-11-15T02:04:35.259Z,96.60
2017-11-15T02:07:03.505Z,96.50
2017-11-15T02:09:31.000Z,96.50
2017-11-15T02:11:59.241Z,96.40
2017-11-15T02:14:26.720Z,96.40
2017-11-15T02:16:54.216Z,96.30
2017-11-15T02:19:21.692Z,96.40
2017-11-15T02:21:49.183Z,96.30
2017-11-15T02:24:16.679Z,96.30
2017-11-15T02:26:44.189Z,96.30
2017-11-15T02:29:11.685Z,96.20
2017-11-15T02:31:39.940Z,96.40
2017-11-15T02:34:07.427Z,96.30
2017-11-15T02:36:35.704Z,96.30
2017-11-15T02:39:03.949Z,96.30
2017-11-15T02:41:31.427Z,96.30
2017-11-15T02:43:59.677Z,96.40
2017-11-15T02:46:27.155Z,96.40
2017-11-15T02:48:55.413Z,96.50
2017-11-15T02:51:23.656Z,96.50
2017-11-15T02:53:51.150Z,96.50
2017-11-15T02:56:18.641Z,96.30
2017-11-15T02:58:46.897Z,96.20
2017-11-15T03:01:14.372Z,96.20
2017-11-15T03:03:42.633Z,96.20
2017-11-15T03:06:10.109Z,96.20
2017-11-15T03:08:38.345Z,96.20
2017-11-15T03:11:05.834Z,96.20
2017-11-15T03:13:34.079Z,96.10
2017-11-15T03:16:01.574Z,96.00
2017-11-15T03:18:29.811Z,96.20
2017-11-15T03:20:58.122Z,96.20
2017-11-15T03:23:26.365Z,96.30
2017-11-15T03:25:53.844Z,95.90
2017-11-15T03:28:21.338Z,95.90
2017-11-15T03:30:48.834Z,95.70
2017-11-15T03:33:16.329Z,95.70
2017-11-15T03:35:44.573Z,95.60
2017-11-15T03:38:12.157Z,95.60
2017-11-15T03:40:39.632Z,95.60
2017-11-15T03:43:07.883Z,95.50
2017-11-15T03:45:35.463Z,95.50
2017-11-15T03:48:03.729Z,95.50
2017-11-15T03:50:31.204Z,95.50
2017-11-15T03:52:59.436Z,95.60
2017-11-15T03:55:26.934Z,95.50
2017-11-15T03:57:55.172Z,95.80
2017-11-15T04:00:22.668Z,95.50
2017-11-15T04:02:50.944Z,95.60
2017-11-15T04:05:19.208Z,95.60
2017-11-15T04:07:46.681Z,95.60
2017-11-15T04:10:14.937Z,95.90
2017-11-15T04:12:42.413Z,95.90
2017-11-15T04:15:10.689Z,96.10
2017-11-15T04:17:38.941Z,96.30
2017-11-15T04:20:06.421Z,96.30
2017-11-15T04:22:34.708Z,96.50
2017-11-15T04:25:02.946Z,96.40
2017-11-15T04:27:30.470Z,96.40
2017-11-15T04:29:57.966Z,96.50
2017-11-15T04:32:25.464Z,96.60
2017-11-15T04:34:53.704Z,96.50
2017-11-15T04:37:21.218Z,96.40
2017-11-15T04:39:48.696Z,96.30
2017-11-15T04:42:16.191Z,96.30
2017-11-15T04:44:44.437Z,96.80
2017-11-15T04:47:11.936Z,96.80
2017-11-15T04:49:40.249Z,96.60
2017-11-15T04:52:07.739Z,96.60
2017-11-15T04:54:35.229Z,96.60
2017-11-15T04:57:03.478Z,96.60
2017-11-15T04:59:30.968Z,96.60
2017-11-15T05:01:59.212Z,96.70
2017-11-15T05:04:26.701Z,96.60
2017-11-15T05:06:54.946Z,96.90
2017-11-15T05:09:22.441Z,96.90
2017-11-15T05:11:50.677Z,96.90
2017-11-15T05:14:18.171Z,96.90
2017-11-15T05:16:45.675Z,96.60
2017-11-15T05:19:13.148Z,96.60
2017-11-15T05:21:40.640Z,96.90
2017-11-15T05:24:08.888Z,96.80
2017-11-15T05:26:36.377Z,96.80
2017-11-15T05:29:04.611Z,96.80
2017-11-15T05:31:32.146Z,96.80
2017-11-15T05:33:59.853Z,96.90
2017-11-15T05:36:27.711Z,96.80
2017-11-15T05:38:55.604Z,96.80
2017-11-15T05:41:23.953Z,96.80
2017-11-15T05:43:51.545Z,96.80
2017-11-15T05:46:20.114Z,96.90
2017-11-15T05:48:47.752Z,96.80
2017-11-15T05:51:15.238Z,96.70
2017-11-15T05:53:42.812Z,96.60
2017-11-15T05:56:11.052Z,97.00
2017-11-15T05:58:38.540Z,97.00
2017-11-15T06:01:06.010Z,97.20
2017-11-15T06:03:34.280Z,97.00
2017-11-15T06:06:02.565Z,97.00
2017-11-15T06:08:30.814Z,97.10
2017-11-15T06:10:58.396Z,97.30
2017-11-15T06:13:26.735Z,97.00
2017-11-15T06:15:54.181Z,97.00
2017-11-15T06:18:21.731Z,97.00
2017-11-15T06:20:49.173Z,97.20
2017-11-15T06:23:17.400Z,96.70
2017-11-15T06:25:44.940Z,96.70
2017-11-15T06:28:12.377Z,97.00
2017-11-15T06:30:39.989Z,96.80
2017-11-15T06:33:08.205Z,96.70
2017-11-15T06:35:35.691Z,96.70
2017-11-15T06:38:03.137Z,96.70
2017-11-15T06:40:30.611Z,96.70
2017-11-15T06:42:58.100Z,96.50
2017-11-15T06:45:25.576Z,96.30
2017-11-15T06:47:53.836Z,96.40
2017-11-15T06:50:22.084Z,96.10
2017-11-15T06:52:49.567Z,96.00
2017-11-15T06:55:17.049Z,95.60
2017-11-15T06:57:45.315Z,95.80
2017-11-15T07:00:13.558Z,95.90
2017-11-15T07:02:41.053Z,95.90
2017-11-15T07:05:09.307Z,95.60
2017-11-15T07:07:36.789Z,95.60
2017-11-15T07:10:04.292Z,95.70
2017-11-15T07:12:31.773Z,95.50
2017-11-15T07:14:59.269Z,95.70
2017-11-15T07:17:27.532Z,95.60
2017-11-15T07:19:55.793Z,95.60
2017-11-15T07:22:23.286Z,95.60
2017-11-15T07:24:50.764Z,96.00
2017-11-15T07:27:18.254Z,95.60
2017-11-15T07:29:45.736Z,95.60
2017-11-15T07:32:13.227Z,95.70
2017-11-15T07:34:40.704Z,95.50
2017-11-15T07:37:09.106Z,95.60
2017-11-15T07:39:36.596Z,95.10
2017-11-15T07:42:04.857Z,95.50
2017-11-15T07:44:32.337Z,95.50
2017-11-15T07:47:00.608Z,95.00
2017-11-15T07:49:28.886Z,95.10
2017-11-15T07:51:57.137Z,95.20
2017-11-15T07:54:24.624Z,95.20
2017-11-15T07:56:52.933Z,95.70
2017-11-15T07:59:20.422Z,95.60
2017-11-15T08:01:47.897Z,95.50
2017-11-15T08:04:15.406Z,95.50
2017-11-15T08:06:42.888Z,95.30
2017-11-15T08:09:10.392Z,95.30
2017-11-15T08:11:38.646Z,95.30
2017-11-15T08:14:06.131Z,95.20
2017-11-15T08:16:34.408Z,95.40
2017-11-15T08:19:02.657Z,95.40
2017-11-15T08:21:30.143Z,95.40
2017-11-15T08:23:58.380Z,95.40
2017-11-15T08:26:25.906Z,95.40
2017-11-15T08:28:53.403Z,95.40
2017-11-15T08:31:20.876Z,95.10
2017-11-15T08:33:48.360Z,95.10
2017-11-15T08:36:16.607Z,94.90
2017-11-15T08:39:56.667Z,95.00
2017-11-15T08:42:24.153Z,94.90
2017-11-15T08:44:52.397Z,95.00
2017-11-15T08:47:19.892Z,95.00
2017-11-15T08:49:47.371Z,94.80
2017-11-15T08:52:14.856Z,94.90
2017-11-15T08:54:42.353Z,94.90
2017-11-15T08:57:10.594Z,94.70
2017-11-15T08:59:38.084Z,94.70
2017-11-15T09:02:06.333Z,94.60
2017-11-15T09:04:33.839Z,94.60
2017-11-15T09:07:01.377Z,94.80
2017-11-15T09:09:29.621Z,94.80
2017-11-15T09:11:57.229Z,94.50
2017-11-15T09:14:25.472Z,94.30
2017-11-15T09:16:53.050Z,94.30
2017-11-15T09:19:21.290Z,94.60
2017-11-15T09:21:48.796Z,94.60
2017-11-15T09:24:17.040Z,94.70
2017-11-15T09:26:44.512Z,94.60
2017-11-15T09:29:12.773Z,94.10
2017-11-15T09:31:40.244Z,94.10
2017-11-15T09:34:07.731Z,94.50
2017-11-15T09:36:35.217Z,94.40
2017-11-15T09:39:02.709Z,94.20
2017-11-15T09:41:30.181Z,94.10
2017-11-15T09:43:57.704Z,93.80
2017-11-15T09:46:25.181Z,94.00
2017-11-15T09:48:52.656Z,93.90
2017-11-15T09:51:20.146Z,94.00
2017-11-15T14:24:30.220Z,94.00
2017-11-15T14:26:58.480Z,91.70
2017-11-15T14:29:25.956Z,91.60
2017-11-15T14:31:54.221Z,91.40
2017-11-15T14:34:22.469Z,91.40
2017-11-15T14:36:49.958Z,91.20
2017-11-15T14:39:18.228Z,91.20
2017-11-15T14:41:46.472Z,91.70
2017-11-15T14:44:14.009Z,91.30
2017-11-15T14:46:41.591Z,91.20
2017-11-15T14:49:09.092Z,91.30
2017-11-15T14:51:37.336Z,91.30
2017-11-15T14:54:04.824Z,91.30
2017-11-15T14:56:33.069Z,91.10
2017-11-15T14:59:00.700Z,91.10
2017-11-15T15:01:28.184Z,91.20
2017-11-15T15:03:55.664Z,91.00
2017-11-15T15:06:40.444Z,91.10
2017-11-15T15:09:08.689Z,91.00
2017-11-15T15:11:36.184Z,91.00
2017-11-15T15:14:04.477Z,91.00
2017-11-15T15:16:31.972Z,91.00
2017-11-15T15:18:59.464Z,91.10
2017-11-15T15:21:26.980Z,91.20
2017-11-15T15:23:54.497Z,91.50
2017-11-15T15:26:22.753Z,91.20
2017-11-15T15:28:50.259Z,91.10
2017-11-15T15:31:17.769Z,91.00
2017-11-15T15:33:45.260Z,91.10
2017-11-15T15:36:12.749Z,91.10
2017-11-15T15:38:40.245Z,91.00
2017-11-15T15:41:07.737Z,91.00
2017-11-15T15:43:35.237Z,91.10
2017-11-15T15:46:02.713Z,91.10
2017-11-15T15:48:30.331Z,91.20
2017-11-15T15:50:57.832Z,91.40
2017-11-15T15:53:25.350Z,91.10
2017-11-15T15:55:52.838Z,91.20
2017-11-15T15:58:20.312Z,91.30
2017-11-15T16:00:47.813Z,91.40
2017-11-15T16:03:15.285Z,91.40
2017-11-15T16:05:42.784Z,91.30
2017-11-15T16:08:10.277Z,91.50
2017-11-15T16:10:38.561Z,91.30
2017-11-15T16:13:06.034Z,91.30
2017-11-15T16:15:33.549Z,91.40
2017-11-15T16:18:01.797Z,91.00
2017-11-15T16:20:29.281Z,90.90
2017-11-15T16:22:56.858Z,91.10
2017-11-15T16:25:25.108Z,91.00
2017-11-15T16:27:52.598Z,91.00
2017-11-15T16:30:20.848Z,91.10
2017-11-15T16:32:48.329Z,91.10
2017-11-15T16:35:16.638Z,91.60
2017-11-15T16:37:44.128Z,91.30
2017-11-15T16:40:11.628Z,91.30
2017-11-15T16:42:39.895Z,91.00
2017-11-15T16:45:08.140Z,91.00
2017-11-15T16:47:35.617Z,91.00
2017-11-15T16:50:03.104Z,91.20
2017-11-15T16:52:30.572Z,91.20
2017-11-15T16:54:58.110Z,91.10
2017-11-15T16:57:26.382Z,91.30
2017-11-15T16:59:54.672Z,91.20
2017-11-15T17:02:22.915Z,91.30
2017-11-15T17:04:50.432Z,91.30
2017-11-15T17:07:17.909Z,91.20
2017-11-15T17:09:45.416Z,91.20
2017-11-15T17:12:13.697Z,91.20
2017-11-15T17:14:41.966Z,91.30
2017-11-15T17:17:10.252Z,91.60
2017-11-15T17:19:38.520Z,91.50
2017-11-15T17:22:06.783Z,91.50
2017-11-15T17:24:35.030Z,91.50
2017-11-15T17:27:02.529Z,91.40
2017-11-15T17:29:30.773Z,91.40
2017-11-15T17:31:58.276Z,91.40
2017-11-15T17:34:26.574Z,91.60
2017-11-15T17:36:54.059Z,91.60
2017-11-15T17:39:21.601Z,91.60
2017-11-15T17:41:49.092Z,91.70
2017-11-15T17:44:16.583Z,91.60
2017-11-15T17:46:44.816Z,91.50
2017-11-15T17:49:12.297Z,91.50
2017-11-15T17:51:40.554Z,91.70
2017-11-15T17:54:08.054Z,91.40
2017-11-15T17:56:36.297Z,91.50
2017-11-15T17:59:03.796Z,91.50
2017-11-15T18:01:32.162Z,91.30
2017-11-15T18:04:00.421Z,91.30
2017-11-15T18:06:27.969Z,91.30
2017-11-15T18:08:56.468Z,91.50
2017-11-15T18:11:24.121Z,91.50
2017-11-15T18:13:52.601Z,91.60
2017-11-15T18:16:20.459Z,91.60
2017-11-15T18:18:48.752Z,91.50
2017-11-15T18:21:16.231Z,91.50
2017-11-15T18:23:44.477Z,91.50
2017-11-15T18:26:11.965Z,91.50
2017-11-15T18:28:40.233Z,91.50
2017-11-15T18:31:08.499Z,91.50
2017-11-15T18:33:35.980Z,91.40
2017-11-15T18:36:04.240Z,91.60
2017-11-15T18:38:32.508Z,91.50
2017-11-15T18:40:59.989Z,91.50
2017-11-15T18:43:27.487Z,91.50
2017-11-15T18:45:54.956Z,91.60
2017-11-15T18:48:22.467Z,91.40
2017-11-15T18:50:50.714Z,91.60
2017-11-15T18:53:18.280Z,91.60
2017-11-15T18:55:45.772Z,91.60
2017-11-15T18:58:13.254Z,91.60
2017-11-15T19:00:40.765Z,91.60
2017-11-15T19:03:09.008Z,91.50
2017-11-15T19:05:36.493Z,91.40
2017-11-15T19:08:04.760Z,91.40
2017-11-15T19:10:32.282Z,91.30
2017-11-15T19:12:59.773Z,91.40
2017-11-15T19:15:27.263Z,91.50
2017-11-15T19:17:55.504Z,91.40
2017-11-15T19:20:23.018Z,91.40
2017-11-15T19:22:50.502Z,91.50
2017-11-15T19:25:18.062Z,91.40
2017-11-15T19:27:45.556Z,91.60
2017-11-15T19:30:13.034Z,91.50
2017-11-15T19:32:40.626Z,91.90
2017-11-15T19:35:08.109Z,91.50
2017-11-15T19:37:35.652Z,91.50
2017-11-15T19:40:03.128Z,91.60
2017-11-15T19:42:30.616Z,91.50
2017-11-15T19:44:59.282Z,91.60
2017-11-15T19:47:26.802Z,91.60
2017-11-15T19:49:54.291Z,91.50
2017-11-15T19:52:21.803Z,91.50
2017-11-15T19:54:49.302Z,91.50
2017-11-15T19:57:16.808Z,91.50
2017-11-15T19:59:45.076Z,91.50
2017-11-15T20:02:13.327Z,91.30
2017-11-15T20:04:41.632Z,91.40
2017-11-15T20:07:09.937Z,91.30
2017-11-15T20:09:37.514Z,91.30
2017-11-15T20:12:04.998Z,91.20
2017-11-15T20:14:32.476Z,91.30
2017-11-15T20:17:00.740Z,91.30
2017-11-15T20:19:28.221Z,91.30
2017-11-15T20:21:56.585Z,91.10
2017-11-15T20:24:24.048Z,91.10
2017-11-15T20:26:52.330Z,91.00
2017-11-15T20:29:20.565Z,91.00
2017-11-15T20:31:48.069Z,91.00
2017-11-15T20:34:16.308Z,91.20
2017-11-15T20:36:43.788Z,91.20
2017-11-15T20:39:11.317Z,91.00
2017-11-15T20:41:38.848Z,90.80
2017-11-15T20:44:06.354Z,90.90
2017-11-15T20:46:33.828Z,91.00
2017-11-15T20:49:02.118Z,90.80
2017-11-15T20:51:30.393Z,90.80
2017-11-15T20:53:58.706Z,91.00
2017-11-15T20:56:26.197Z,90.90
2017-11-15T20:58:53.673Z,90.90
2017-11-15T21:01:21.993Z,90.90
2017-11-15T21:03:49.476Z,90.80
2017-11-15T21:06:16.963Z,90.80
2017-11-15T21:08:44.471Z,91.00
2017-11-15T21:11:11.973Z,91.00
2017-11-15T21:13:39.455Z,91.00
2017-11-15T21:16:07.741Z,91.00
2017-11-15T21:18:36.041Z,90.90
2017-11-15T21:21:03.525Z,90.90
2017-11-15T21:23:31.029Z,91.00
2017-11-15T21:25:59.309Z,90.90
2017-11-15T21:28:27.585Z,90.90
2017-11-15T21:30:55.853Z,90.90
2017-11-15T21:33:24.098Z,90.80
2017-11-15T21:35:52.206Z,90.80
2017-11-15T21:38:20.468Z,90.80
2017-11-15T21:40:47.965Z,90.80
2017-11-15T21:43:15.458Z,91.00
2017-11-15T21:45:42.964Z,91.00
2017-11-15T21:48:11.208Z,91.10
2017-11-15T21:50:38.701Z,91.10
2017-11-15T21:53:06.192Z,91.20
2017-11-15T21:55:33.708Z,91.20
2017-11-15T21:58:01.959Z,91.10
2017-11-15T22:00:29.459Z,91.10
2017-11-15T22:02:56.948Z,91.00
2017-11-15T22:05:24.425Z,91.20
2017-11-15T22:07:51.908Z,91.10
2017-11-15T22:10:19.384Z,91.20
2017-11-15T22:12:47.636Z,91.00
2017-11-15T22:15:15.106Z,91.00
2017-11-15T22:17:43.392Z,91.10
2017-11-15T22:20:11.640Z,91.10
2017-11-15T22:22:39.252Z,91.10
2017-11-15T22:25:06.732Z,91.10
2017-11-15T22:27:34.210Z,91.00
2017-11-15T22:30:01.702Z,91.10
2017-11-15T22:32:29.953Z,91.00
2017-11-15T22:34:57.466Z,91.00
2017-11-15T22:37:24.949Z,90.90
2017-11-15T22:39:52.448Z,91.00
2017-11-15T22:42:20.691Z,90.90
2017-11-15T22:44:48.184Z,91.00
2017-11-15T22:47:16.435Z,91.10
2017-11-15T22:49:43.923Z,91.10
2017-11-15T22:52:12.180Z,91.10
2017-11-15T22:54:39.667Z,91.10
2017-11-15T22:57:07.155Z,91.10
2017-11-15T22:59:34.644Z,91.10
2017-11-15T23:02:02.128Z,90.90
2017-11-15T23:04:30.369Z,91.10
2017-11-15T23:06:57.965Z,91.00
2017-11-15T23:09:26.210Z,90.90
2017-11-15T23:11:53.693Z,90.90
2017-11-15T23:14:21.937Z,90.90
2017-11-15T23:16:49.424Z,90.90
2017-11-15T23:19:17.675Z,91.00
2017-11-15T23:21:45.165Z,90.90
2017-11-15T23:24:13.412Z,90.90
2017-11-15T23:26:40.891Z,90.90
2017-11-15T23:29:08.393Z,91.00
2017-11-15T23:31:35.868Z,91.00
2017-11-15T23:34:03.361Z,90.90
2017-11-15T23:36:30.973Z,91.00
2017-11-15T23:38:58.465Z,91.00
2017-11-15T23:41:25.944Z,91.10
2017-11-15T23:43:54.216Z,91.20
2017-11-15T23:46:21.683Z,91.20
2017-11-15T23:48:49.995Z,91.20
2017-11-15T23:51:17.534Z,91.20
2017-11-15T23:53:45.812Z,91.20
2017-11-15T23:56:14.069Z,91.90
2017-11-15T23:58:41.545Z,91.90
